Terminal Aerodrome Forecast
Issued by NWS

Home | Current Version | Previous Version | Text Only | Print | Product List | Glossary On
Versions: 1 2 3 4 5 6 7 8 9 10 11 12 13 14 15 16 17
418
FTUS43 KILX 131138
TAFDEC
TAF
KDEC 131138Z 1312/1412 35009KT P6SM SKC
     FM140100 10005KT P6SM OVC250
     FM140800 12010KT 3SM -SN OVC035
     FM141100 13014KT 1SM -SN BR OVC015=

USA.gov is the U.S. government's official web portal to all federal, state and local government web resources and services.